Active alerts

Dallas County
  Details for Dallas County 
Denton County
  Details for Denton County 
Tarrant County
  Details for Tarrant County 

Flower Mound more information Flower Mound


Coppell more information Coppell


I-35W at Alliance Airport more information I-35W at Alliance Airport


FM114 @ DFW North Entrance more information FM114 @ DFW North Entrance



Weather Underground History page Text

Daily Summary for November 21, 2017 Units:  English    Metric   Both
« Previous Day
Next Day »
Daily Weekly Monthly Yearly Custom
  Current: High: Low: Average:
Temperature: 56.7 °F 67.6 °F 50.7 °F 57.9 °F
Dew Point: 39.7 °F 53.2 °F 39.4 °F 47.1 °F
Humidity: 53 % 90 % 52 % 68 %
Wind Speed: 0.9 mph 6.0 mph 0.0 mph 1.4 mph
Wind Gust: 2.0 mph 10.0 mph - -
Wind:NNW - - South
Pressure: 30.17 in 30.17 in 29.80 in -
Precipitation: 0.00 in      
Historical Graphs
 
 
Tabular Data for November 21, 2017
Time Temperature Dew Point Pressure Wind Wind Speed Wind Gust Humidity Rainfall Rate (Hourly)
00:06 53.8 °F 39.4 °F 29.89 in SSE 0.9 mph 3.0 mph 58 % 0.00 in
00:11 54.0 °F 39.6 °F 29.89 in SSE 0.9 mph 4.0 mph 58 % 0.00 in
00:16 54.0 °F 39.6 °F 29.88 in South 0.9 mph 6.0 mph 58 % 0.00 in
00:26 54.0 °F 39.6 °F 29.88 in SSE 2.0 mph 5.0 mph 58 % 0.00 in
00:31 54.0 °F 39.6 °F 29.88 in SSE 0.9 mph 4.0 mph 58 % 0.00 in
00:36 54.1 °F 40.1 °F 29.88 in SSE 4.0 mph 6.0 mph 59 % 0.00 in
00:46 54.0 °F 39.9 °F 29.87 in SSE 4.0 mph 4.0 mph 59 % 0.00 in
00:51 53.8 °F 39.7 °F 29.87 in SSE 2.0 mph 4.0 mph 59 % 0.00 in
00:56 53.8 °F 39.7 °F 29.87 in SSE 2.9 mph 5.0 mph 59 % 0.00 in
01:02 53.4 °F 39.9 °F 29.86 in SSE 0.9 mph 2.0 mph 60 % 0.00 in
01:07 53.2 °F 39.7 °F 29.86 in SSE 0.9 mph 6.0 mph 60 % 0.00 in
01:12 53.2 °F 39.7 °F 29.86 in SSE 0.9 mph 4.0 mph 60 % 0.00 in
01:17 53.1 °F 39.9 °F 29.86 in Calm   3.0 mph 61 % 0.00 in
01:22 52.9 °F 39.7 °F 29.85 in SSE 2.0 mph 4.0 mph 61 % 0.00 in
01:27 52.5 °F 39.4 °F 29.85 in SSE 2.0 mph 4.0 mph 61 % 0.00 in
01:32 52.3 °F 39.7 °F 29.85 in SSE 2.9 mph 4.0 mph 62 % 0.00 in
01:37 52.2 °F 39.6 °F 29.85 in SSE 0.9 mph 4.0 mph 62 % 0.00 in
01:42 52.0 °F 39.4 °F 29.85 in SSE 4.0 mph 4.0 mph 62 % 0.00 in
01:47 52.0 °F 39.4 °F 29.85 in SSE 0.9 mph 3.0 mph 62 % 0.00 in
01:52 51.8 °F 39.6 °F 29.86 in SSE 0.9 mph 3.0 mph 63 % 0.00 in
02:02 51.6 °F 39.9 °F 29.85 in SSE 0.9 mph 3.0 mph 64 % 0.00 in
02:07 51.6 °F 39.9 °F 29.85 in SSE 2.0 mph 3.0 mph 64 % 0.00 in
02:12 51.4 °F 40.1 °F 29.85 in SSE 2.9 mph 4.0 mph 65 % 0.00 in
02:17 51.4 °F 40.1 °F 29.85 in SSE 0.9 mph 3.0 mph 65 % 0.00 in
02:22 51.4 °F 40.1 °F 29.85 in SSE 2.0 mph 2.0 mph 65 % 0.00 in
02:27 51.3 °F 40.3 °F 29.85 in Calm   1.0 mph 66 % 0.00 in
02:32 51.3 °F 40.3 °F 29.85 in Calm   2.0 mph 66 % 0.00 in
02:37 51.1 °F 40.5 °F 29.85 in SSE 0.9 mph 4.0 mph 67 % 0.00 in
02:53 51.1 °F 40.8 °F 29.84 in South 2.0 mph 5.0 mph 68 % 0.00 in
02:58 51.1 °F 41.2 °F 29.84 in SSE 2.9 mph 5.0 mph 69 % 0.00 in
03:08 51.3 °F 41.4 °F 29.84 in SSE 2.9 mph 7.0 mph 69 % 0.00 in
03:13 51.3 °F 41.9 °F 29.84 in SSE 4.0 mph 7.0 mph 70 % 0.00 in
03:18 51.4 °F 41.9 °F 29.83 in Calm   4.0 mph 70 % 0.00 in
03:23 51.4 °F 41.9 °F 29.83 in SSE 2.0 mph 6.0 mph 70 % 0.00 in
03:28 51.4 °F 41.9 °F 29.83 in SSE 2.9 mph 4.0 mph 70 % 0.00 in
03:33 51.6 °F 42.4 °F 29.82 in Calm   7.0 mph 71 % 0.00 in
03:38 51.6 °F 43.0 °F 29.81 in SSE 2.9 mph 6.0 mph 72 % 0.00 in
03:43 51.6 °F 43.3 °F 29.81 in South 4.0 mph 6.0 mph 73 % 0.00 in
03:48 52.0 °F 43.5 °F 29.81 in South 0.9 mph 4.0 mph 73 % 0.00 in
03:53 52.0 °F 43.9 °F 29.81 in South 2.0 mph 9.0 mph 74 % 0.00 in
03:58 52.2 °F 44.1 °F 29.81 in SSE 4.0 mph 7.0 mph 74 % 0.00 in
04:03 52.3 °F 44.6 °F 29.80 in SSE 4.0 mph 8.0 mph 75 % 0.00 in
04:08 52.3 °F 44.6 °F 29.80 in SSE 4.9 mph 8.0 mph 75 % 0.00 in
04:13 52.5 °F 45.1 °F 29.80 in South 4.0 mph 5.0 mph 76 % 0.00 in
04:18 52.5 °F 45.1 °F 29.81 in SSE 4.0 mph 9.0 mph 76 % 0.00 in
04:23 52.5 °F 45.1 °F 29.81 in South 2.9 mph 6.0 mph 76 % 0.00 in
04:33 52.9 °F 45.9 °F 29.80 in SE 2.0 mph 5.0 mph 77 % 0.00 in
04:43 52.9 °F 46.2 °F 29.80 in SE 4.0 mph 8.0 mph 78 % 0.00 in
04:48 53.1 °F 46.8 °F 29.80 in SSE 4.9 mph 10.0 mph 79 % 0.00 in
04:54 53.2 °F 46.9 °F 29.80 in SSE 4.0 mph 7.0 mph 79 % 0.00 in
04:59 53.4 °F 47.5 °F 29.80 in SSE 4.0 mph 8.0 mph 80 % 0.00 in
05:14 53.6 °F 47.7 °F 29.80 in SE 4.0 mph 7.0 mph 80 % 0.00 in
05:29 53.2 °F 47.3 °F 29.81 in Calm   3.0 mph 80 % 0.00 in
05:34 53.1 °F 47.1 °F 29.82 in Calm   4.0 mph 80 % 0.00 in
05:39 52.5 °F 46.6 °F 29.82 in Calm   1.0 mph 80 % 0.00 in
05:44 52.2 °F 46.2 °F 29.82 in Calm   1.0 mph 80 % 0.00 in
05:54 51.4 °F 46.2 °F 29.81 in Calm   2.0 mph 82 % 0.00 in
06:04 51.1 °F 46.0 °F 29.82 in Calm   1.0 mph 83 % 0.00 in
06:09 50.9 °F 46.2 °F 29.82 in Calm   1.0 mph 84 % 0.00 in
06:14 50.9 °F 46.2 °F 29.82 in SSE 2.0 mph 2.0 mph 84 % 0.00 in
06:19 50.7 °F 46.4 °F 29.82 in Calm   3.0 mph 85 % 0.00 in
06:22 50.7 °F 46.4 °F 29.82 in Calm   4.0 mph 85 % 0.00 in
06:27 50.7 °F 46.8 °F 29.82 in SSE 0.9 mph 3.0 mph 86 % 0.00 in
06:38 50.7 °F 46.9 °F 29.82 in Calm   5.0 mph 87 % 0.00 in
06:43 50.7 °F 46.9 °F 29.83 in SSE 2.0 mph 5.0 mph 87 % 0.00 in
06:48 50.7 °F 46.9 °F 29.83 in SSE 0.9 mph 6.0 mph 87 % 0.00 in
06:53 50.7 °F 47.3 °F 29.83 in SSE 2.9 mph 4.0 mph 88 % 0.00 in
06:58 50.7 °F 47.3 °F 29.83 in Calm   5.0 mph 88 % 0.00 in
07:03 50.7 °F 47.3 °F 29.83 in SSE 0.9 mph 2.0 mph 88 % 0.00 in
07:18 50.7 °F 47.3 °F 29.84 in South 2.0 mph 4.0 mph 88 % 0.00 in
07:23 50.7 °F 47.3 °F 29.84 in SSE 0.9 mph 4.0 mph 88 % 0.00 in
07:24 50.7 °F 47.3 °F 29.84 in Calm   4.0 mph 88 % 0.00 in
07:29 50.7 °F 47.7 °F 29.84 in SSE 2.0 mph 5.0 mph 89 % 0.00 in
07:34 50.7 °F 47.7 °F 29.84 in South 0.9 mph 6.0 mph 89 % 0.00 in
07:44 50.9 °F 47.8 °F 29.84 in South 0.9 mph 4.0 mph 89 % 0.00 in
07:49 50.9 °F 47.8 °F 29.85 in Calm   1.0 mph 89 % 0.00 in
07:54 51.1 °F 48.0 °F 29.85 in South 0.9 mph 2.0 mph 89 % 0.00 in
07:59 51.1 °F 48.2 °F 29.85 in Calm   2.0 mph 90 % 0.00 in
08:09 51.3 °F 48.4 °F 29.85 in South 0.9 mph 3.0 mph 90 % 0.00 in
08:14 51.4 °F 48.6 °F 29.85 in South 2.0 mph 4.0 mph 90 % 0.00 in
08:19 52.0 °F 49.1 °F 29.85 in SSE 2.0 mph 5.0 mph 90 % 0.00 in
08:24 52.3 °F 49.3 °F 29.85 in South 4.0 mph 6.0 mph 89 % 0.00 in
08:29 52.5 °F 49.5 °F 29.84 in SE 0.9 mph 6.0 mph 89 % 0.00 in
08:34 52.7 °F 49.5 °F 29.84 in South 4.0 mph 5.0 mph 89 % 0.00 in
08:39 52.9 °F 49.5 °F 29.84 in SSE 2.9 mph 5.0 mph 88 % 0.00 in
08:44 53.2 °F 49.8 °F 29.84 in SSE 2.0 mph 6.0 mph 88 % 0.00 in
08:49 54.1 °F 50.4 °F 29.84 in SE 0.9 mph 5.0 mph 87 % 0.00 in
08:54 54.5 °F 50.4 °F 29.85 in Calm   7.0 mph 86 % 0.00 in
09:05 55.0 °F 50.5 °F 29.85 in SSE 4.0 mph 8.0 mph 85 % 0.00 in
09:10 55.2 °F 50.5 °F 29.85 in SSE 2.0 mph 7.0 mph 84 % 0.00 in
09:15 55.8 °F 51.1 °F 29.85 in SSE 6.0 mph 6.0 mph 84 % 0.00 in
09:20 56.1 °F 51.1 °F 29.85 in SE 4.0 mph 5.0 mph 83 % 0.00 in
09:25 56.5 °F 51.1 °F 29.85 in SSE 4.0 mph 7.0 mph 82 % 0.00 in
09:30 56.7 °F 51.3 °F 29.85 in SE 0.9 mph 5.0 mph 82 % 0.00 in
09:36 57.6 °F 51.8 °F 29.85 in ESE 4.0 mph 9.0 mph 81 % 0.00 in
09:41 57.7 °F 51.6 °F 29.86 in SSE 4.9 mph 9.0 mph 80 % 0.00 in
09:46 57.7 °F 51.6 °F 29.86 in SSE 0.9 mph 8.0 mph 80 % 0.00 in
09:51 58.6 °F 52.5 °F 29.86 in SSE 2.9 mph 4.0 mph 80 % 0.00 in
09:56 59.4 °F 52.5 °F 29.87 in South 2.0 mph 7.0 mph 78 % 0.00 in
10:06 58.8 °F 52.0 °F 29.88 in SE 2.9 mph 6.0 mph 78 % 0.00 in
10:26 61.2 °F 52.9 °F 29.89 in SE 4.9 mph 5.0 mph 74 % 0.00 in
10:33 61.5 °F 53.2 °F 29.89 in SSE 0.9 mph 2.0 mph 74 % 0.00 in
10:38 61.7 °F 52.9 °F 29.89 in SSE 0.9 mph 3.0 mph 73 % 0.00 in
10:43 62.2 °F 52.7 °F 29.89 in Calm   3.0 mph 71 % 0.00 in
10:49 62.2 °F 52.7 °F 29.89 in Calm   2.0 mph 71 % 0.00 in
10:54 62.4 °F 52.5 °F 29.89 in SSE 0.9 mph 3.0 mph 70 % 0.00 in
10:59 62.2 °F 51.6 °F 29.89 in Calm   4.0 mph 68 % 0.00 in
11:04 63.0 °F 53.1 °F 29.90 in South 2.0 mph 3.0 mph 70 % 0.00 in
11:09 62.8 °F 52.9 °F 29.89 in Calm   3.0 mph 70 % 0.00 in
11:14 63.7 °F 52.9 °F 29.89 in Calm   1.0 mph 68 % 0.00 in
11:16 63.7 °F 52.9 °F 29.89 in Calm   3.0 mph 68 % 0.00 in
11:26 64.2 °F 53.1 °F 29.89 in Calm   1.0 mph 67 % 0.00 in
11:31 64.0 °F 52.5 °F 29.89 in SSE 0.9 mph 5.0 mph 66 % 0.00 in
11:36 63.3 °F 52.2 °F 29.89 in Calm   3.0 mph 67 % 0.00 in
11:41 64.4 °F 53.2 °F 29.88 in Calm   2.0 mph 67 % 0.00 in
11:46 65.3 °F 52.3 °F 29.88 in Calm   1.0 mph 63 % 0.00 in
11:56 64.8 °F 51.8 °F 29.88 in Calm   1.0 mph 63 % 0.00 in
12:02 64.6 °F 52.5 °F 29.88 in SW 0.9 mph 1.0 mph 65 % 0.00 in
12:07 65.5 °F 53.1 °F 29.88 in Calm   1.0 mph 64 % 0.00 in
12:17 64.8 °F 51.4 °F 29.88 in SSW 2.0 mph 2.0 mph 62 % 0.00 in
12:22 65.3 °F 52.3 °F 29.88 in Calm   2.0 mph 63 % 0.00 in
12:32 65.8 °F 52.5 °F 29.88 in NNE 2.9 mph 3.0 mph 62 % 0.00 in
12:42 66.6 °F 51.8 °F 29.89 in Calm   2.0 mph 59 % 0.00 in
12:47 66.2 °F 52.3 °F 29.88 in Calm   1.0 mph 61 % 0.00 in
12:52 66.7 °F 52.3 °F 29.89 in NNW 0.9 mph 4.0 mph 60 % 0.00 in
12:54 66.7 °F 52.3 °F 29.89 in Calm   4.0 mph 60 % 0.00 in
12:59 67.5 °F 52.2 °F 29.89 in NW 0.9 mph 1.0 mph 58 % 0.00 in
13:04 67.6 °F 52.3 °F 29.89 in Calm   1.0 mph 58 % 0.00 in
13:09 66.7 °F 52.3 °F 29.89 in Calm   1.0 mph 60 % 0.00 in
13:14 66.4 °F 51.6 °F 29.89 in Calm   4.0 mph 59 % 0.00 in
13:24 66.0 °F 51.8 °F 29.89 in NNW 0.9 mph 2.0 mph 60 % 0.00 in
13:29 65.8 °F 51.6 °F 29.90 in North 0.9 mph 3.0 mph 60 % 0.00 in
13:34 65.8 °F 52.0 °F 29.90 in North 0.9 mph 1.0 mph 61 % 0.00 in
13:39 66.0 °F 50.9 °F 29.90 in Calm   3.0 mph 58 % 0.00 in
13:50 65.5 °F 51.6 °F 29.91 in Calm   3.0 mph 61 % 0.00 in
14:00 65.1 °F 51.3 °F 29.91 in NNW 4.0 mph 4.0 mph 61 % 0.00 in
14:05 65.8 °F 52.5 °F 29.92 in NNW 2.9 mph 4.0 mph 62 % 0.00 in
14:10 66.0 °F 51.8 °F 29.91 in Calm   3.0 mph 60 % 0.00 in
14:15 66.2 °F 52.0 °F 29.91 in Calm   7.0 mph 60 % 0.00 in
14:25 65.8 °F 52.0 °F 29.91 in Calm   1.0 mph 61 % 0.00 in
14:30 65.5 °F 51.6 °F 29.92 in NNE 0.9 mph 2.0 mph 61 % 0.00 in
14:35 65.1 °F 51.3 °F 29.92 in Calm   2.0 mph 61 % 0.00 in
14:40 65.5 °F 51.6 °F 29.92 in NNE 0.9 mph 2.0 mph 61 % 0.00 in
14:55 65.5 °F 51.6 °F 29.91 in Calm     61 % 0.00 in
15:10 65.7 °F 51.8 °F 29.91 in Calm   1.0 mph 61 % 0.00 in
15:15 65.5 °F 51.3 °F 29.91 in Calm   2.0 mph 60 % 0.00 in
15:20 65.5 °F 51.3 °F 29.92 in Calm   2.0 mph 60 % 0.00 in
15:25 65.5 °F 51.6 °F 29.92 in Calm   2.0 mph 61 % 0.00 in
15:30 65.5 °F 51.6 °F 29.92 in Calm   1.0 mph 61 % 0.00 in
15:40 65.5 °F 51.3 °F 29.92 in Calm   3.0 mph 60 % 0.00 in
15:55 65.3 °F 51.1 °F 29.95 in NNW 0.9 mph 2.0 mph 60 % 0.00 in
16:10 65.1 °F 50.9 °F 29.96 in Calm   2.0 mph 60 % 0.00 in
16:15 64.9 °F 50.7 °F 29.96 in Calm   3.0 mph 60 % 0.00 in
16:20 64.9 °F 50.7 °F 29.96 in NNW 0.9 mph 2.0 mph 60 % 0.00 in
16:25 65.1 °F 50.9 °F 29.97 in Calm   3.0 mph 60 % 0.00 in
16:40 65.5 °F 51.3 °F 29.97 in NNW 0.9 mph 2.0 mph 60 % 0.00 in
16:46 65.5 °F 51.3 °F 29.97 in Calm   3.0 mph 60 % 0.00 in
17:01 64.9 °F 50.7 °F 29.99 in North 2.9 mph 4.0 mph 60 % 0.00 in
17:06 64.6 °F 50.9 °F 29.99 in NNW 0.9 mph 7.0 mph 61 % 0.00 in
17:11 64.4 °F 50.7 °F 30.00 in Calm   1.0 mph 61 % 0.00 in
17:16 64.0 °F 50.4 °F 30.00 in NNW 6.0 mph 7.0 mph 61 % 0.00 in
17:21 63.9 °F 49.6 °F 30.01 in NNW 0.9 mph 3.0 mph 60 % 0.00 in
17:26 63.7 °F 49.5 °F 30.01 in North 2.0 mph 5.0 mph 60 % 0.00 in
17:31 63.3 °F 49.3 °F 30.01 in NNW 0.9 mph 3.0 mph 60 % 0.00 in
17:41 63.0 °F 48.9 °F 30.02 in Calm   3.0 mph 60 % 0.00 in
17:46 62.8 °F 48.7 °F 30.02 in Calm   2.0 mph 60 % 0.00 in
17:51 62.4 °F 48.7 °F 30.03 in Calm   2.0 mph 61 % 0.00 in
17:56 62.4 °F 49.3 °F 30.03 in North 2.9 mph 4.0 mph 62 % 0.00 in
18:01 62.2 °F 49.1 °F 30.03 in Calm   5.0 mph 62 % 0.00 in
18:06 62.2 °F 49.5 °F 30.04 in Calm   2.0 mph 63 % 0.00 in
18:11 62.1 °F 49.3 °F 30.04 in Calm   1.0 mph 63 % 0.00 in
18:16 61.9 °F 49.1 °F 30.04 in Calm   1.0 mph 63 % 0.00 in
18:21 61.7 °F 49.5 °F 30.05 in NNW 2.0 mph 4.0 mph 64 % 0.00 in
18:26 61.5 °F 49.3 °F 30.05 in Calm   1.0 mph 64 % 0.00 in
18:31 61.3 °F 49.1 °F 30.06 in Calm   1.0 mph 64 % 0.00 in
18:36 61.3 °F 49.1 °F 30.06 in Calm   2.0 mph 64 % 0.00 in
18:41 61.2 °F 48.9 °F 30.06 in Calm   2.0 mph 64 % 0.00 in
18:46 61.2 °F 48.9 °F 30.07 in Calm   3.0 mph 64 % 0.00 in
18:57 61.0 °F 48.4 °F 30.07 in Calm   2.0 mph 63 % 0.00 in
19:02 61.0 °F 48.4 °F 30.08 in Calm   1.0 mph 63 % 0.00 in
19:07 60.6 °F 48.0 °F 30.08 in Calm   2.0 mph 63 % 0.00 in
19:12 60.6 °F 48.0 °F 30.09 in NNW 0.9 mph 1.0 mph 63 % 0.00 in
19:14 60.4 °F 47.8 °F 30.09 in Calm   2.0 mph 63 % 0.00 in
19:24 60.3 °F 47.7 °F 30.10 in Calm   3.0 mph 63 % 0.00 in
19:39 59.7 °F 47.1 °F 30.11 in NNW 0.9 mph 6.0 mph 63 % 0.00 in
19:44 59.5 °F 46.9 °F 30.11 in NNW 4.0 mph 7.0 mph 63 % 0.00 in
19:54 59.5 °F 44.8 °F 30.12 in Calm   6.0 mph 58 % 0.00 in
19:59 59.4 °F 43.7 °F 30.13 in North 4.9 mph 9.0 mph 56 % 0.00 in
20:09 59.2 °F 42.6 °F 30.13 in North 2.0 mph 5.0 mph 54 % 0.00 in
20:14 59.0 °F 42.4 °F 30.13 in North 2.9 mph 5.0 mph 54 % 0.00 in
20:19 58.8 °F 41.7 °F 30.14 in NNW 2.0 mph 6.0 mph 53 % 0.00 in
20:34 58.6 °F 41.0 °F 30.14 in Calm   3.0 mph 52 % 0.00 in
20:39 58.5 °F 40.8 °F 30.14 in NNE 0.9 mph 2.0 mph 52 % 0.00 in
20:44 58.3 °F 40.8 °F 30.14 in NNW 2.0 mph 2.0 mph 52 % 0.00 in
20:49 57.9 °F 40.8 °F 30.15 in NE 2.0 mph 3.0 mph 53 % 0.00 in
20:54 57.7 °F 40.6 °F 30.15 in Calm   5.0 mph 53 % 0.00 in
20:59 57.7 °F 40.6 °F 30.15 in North 4.9 mph 6.0 mph 53 % 0.00 in
21:04 57.6 °F 40.6 °F 30.16 in NNW 2.9 mph 8.0 mph 53 % 0.00 in
21:09 57.6 °F 40.1 °F 30.16 in NNW 2.9 mph 6.0 mph 52 % 0.00 in
21:15 57.6 °F 40.1 °F 30.17 in North 2.0 mph 5.0 mph 52 % 0.00 in
21:20 57.4 °F 39.9 °F 30.17 in NE 2.0 mph 5.0 mph 52 % 0.00 in
21:23 57.2 °F 39.7 °F 30.17 in NNE 2.9 mph 3.0 mph 52 % 0.00 in
21:25 57.0 °F 39.6 °F 30.17 in NNE 0.9 mph 9.0 mph 52 % 0.00 in
21:30 57.0 °F 40.1 °F 30.17 in NNE 2.0 mph 5.0 mph 53 % 0.00 in
21:35 56.8 °F 39.9 °F 30.17 in NNW 4.0 mph 4.0 mph 53 % 0.00 in
21:40 56.7 °F 39.7 °F 30.17 in NNW 0.9 mph 2.0 mph 53 % 0.00 in
FMWeather.us
Compliments of Weather Underground - 2.5 mb

Script developed by  Jim McMurry - jmcmurry@mwt.net Adapted for the template by  Wim van der Kuil - Leuven-Template.eu

You find our weather info also at:

WeatherCloud

Weather Underground

Mid South Weather Network

WeatherlinkIP

Citizen Weather Observer Program (CWOP)

HAMweather, WeatherForYou, PWS Weather

Equipment we use:

Weather-station
Davis Vantage Pro 2

Weather-program
Weather Display

Weather-server
Intel NUC

Provider
ehost.com

Davis Vantage Pro 2

Weather Display

Intel NUC

ehost.com